createdAt,value
2022-07-29T00:01:50.008Z,2.45
2022-07-29T00:04:16.980Z,2.42
2022-07-29T00:06:43.812Z,2.13
2022-07-29T00:09:10.399Z,3.10
2022-07-29T00:11:37.027Z,2.80
2022-07-29T00:14:03.704Z,2.88
2022-07-29T00:16:30.422Z,3.28
2022-07-29T00:18:59.547Z,2.97
2022-07-29T00:21:28.521Z,3.03
2022-07-29T00:23:54.990Z,3.30
2022-07-29T00:26:21.458Z,3.15
2022-07-29T00:28:47.925Z,3.13
2022-07-29T00:31:14.551Z,2.55
2022-07-29T00:33:41.023Z,2.90
2022-07-29T00:36:07.559Z,2.95
2022-07-29T00:38:37.000Z,2.83
2022-07-29T00:41:03.561Z,3.15
2022-07-29T00:43:30.068Z,2.88
2022-07-29T00:45:56.605Z,3.00
2022-07-29T00:48:23.086Z,3.03
2022-07-29T00:50:50.637Z,3.10
2022-07-29T00:53:17.286Z,3.13
2022-07-29T00:55:43.901Z,3.75
2022-07-29T00:58:13.202Z,3.60
2022-07-29T01:00:41.752Z,3.15
2022-07-29T01:03:08.935Z,3.13
2022-07-29T01:05:49.632Z,3.10
2022-07-29T01:08:18.338Z,3.00
2022-07-29T01:10:45.173Z,2.88
2022-07-29T01:13:11.969Z,2.40
2022-07-29T01:15:49.233Z,2.70
2022-07-29T01:18:22.177Z,3.08
2022-07-29T01:21:16.881Z,2.85
2022-07-29T01:24:10.718Z,3.00
2022-07-29T01:26:49.162Z,2.58
2022-07-29T01:29:19.038Z,2.80
2022-07-29T01:31:58.967Z,2.67
2022-07-29T01:34:33.605Z,2.90
2022-07-29T01:37:16.817Z,2.95
2022-07-29T01:39:44.620Z,2.78
2022-07-29T01:42:14.172Z,2.75
2022-07-29T01:44:51.676Z,2.70
2022-07-29T01:47:32.233Z,2.63
2022-07-29T01:49:59.631Z,2.85
2022-07-29T01:52:43.298Z,2.90
2022-07-29T01:55:14.588Z,3.13
2022-07-29T01:57:44.255Z,3.03
2022-07-29T02:00:11.837Z,3.10
2022-07-29T02:02:40.608Z,2.90
2022-07-29T02:05:09.356Z,3.30
2022-07-29T02:07:37.431Z,3.03
2022-07-29T02:10:05.098Z,3.45
2022-07-29T02:12:32.541Z,3.10
2022-07-29T02:15:01.099Z,3.03
2022-07-29T02:17:32.013Z,3.40
2022-07-29T02:20:01.042Z,3.38
2022-07-29T02:22:29.799Z,3.28
2022-07-29T02:24:56.939Z,3.22
2022-07-29T02:27:24.843Z,3.30
2022-07-29T02:29:52.329Z,3.15
2022-07-29T02:32:19.100Z,3.42
2022-07-29T02:34:45.836Z,2.75
2022-07-29T02:37:13.040Z,3.08
2022-07-29T02:39:42.183Z,3.45
2022-07-29T02:42:12.733Z,3.00
2022-07-29T02:44:39.261Z,3.30
2022-07-29T02:47:18.669Z,3.17
2022-07-29T02:49:53.441Z,3.20
2022-07-29T02:52:24.285Z,3.10
2022-07-29T02:54:59.691Z,3.70
2022-07-29T02:57:54.733Z,3.30
2022-07-29T03:00:23.475Z,3.30
2022-07-29T03:02:52.520Z,3.40
2022-07-29T03:05:20.978Z,3.35
2022-07-29T03:08:01.487Z,3.28
2022-07-29T03:10:28.361Z,3.30
2022-07-29T03:12:56.597Z,3.47
2022-07-29T03:15:23.224Z,3.40
2022-07-29T03:17:52.703Z,3.17
2022-07-29T03:20:19.631Z,3.40
2022-07-29T03:22:48.003Z,3.47
2022-07-29T03:25:19.063Z,3.60
2022-07-29T03:27:45.876Z,3.70
2022-07-29T03:30:18.314Z,3.70
2022-07-29T03:32:48.565Z,3.40
2022-07-29T03:35:17.432Z,3.55
2022-07-29T03:37:44.834Z,3.67
2022-07-29T03:40:13.696Z,3.47
2022-07-29T03:42:41.561Z,3.08
2022-07-29T03:45:11.042Z,3.30
2022-07-29T03:47:49.612Z,3.47
2022-07-29T03:50:18.068Z,3.10
2022-07-29T03:52:45.416Z,3.90
2022-07-29T03:55:12.151Z,3.65
2022-07-29T03:57:39.295Z,3.70
2022-07-29T04:00:06.816Z,4.10
2022-07-29T04:02:33.562Z,3.80
2022-07-29T04:05:00.846Z,3.70
2022-07-29T04:07:27.438Z,3.72
2022-07-29T04:09:53.966Z,3.30
2022-07-29T04:12:22.150Z,2.90
2022-07-29T04:14:49.629Z,3.00
2022-07-29T04:17:16.082Z,2.97
2022-07-29T04:19:42.560Z,3.17
2022-07-29T04:22:09.005Z,3.30
2022-07-29T04:24:35.605Z,3.25
2022-07-29T04:27:02.070Z,3.47
2022-07-29T04:29:28.568Z,3.47
2022-07-29T04:31:55.061Z,3.75
2022-07-29T04:34:21.525Z,3.55
2022-07-29T04:36:47.948Z,3.53
2022-07-29T04:39:18.082Z,3.42
2022-07-29T04:41:48.154Z,4.15
2022-07-29T04:44:14.841Z,4.10
2022-07-29T04:46:41.461Z,3.67
2022-07-29T04:49:08.193Z,3.88
2022-07-29T04:51:35.345Z,4.40
2022-07-29T04:54:01.988Z,4.15
2022-07-29T04:56:28.626Z,4.38
2022-07-29T04:58:55.145Z,4.03
2022-07-29T05:01:21.680Z,3.90
2022-07-29T05:03:48.256Z,3.75
2022-07-29T05:06:14.725Z,4.05
2022-07-29T05:08:42.042Z,4.15
2022-07-29T05:11:12.443Z,4.20
2022-07-29T05:13:45.898Z,3.35
2022-07-29T05:16:14.207Z,3.60
2022-07-29T05:18:40.876Z,3.95
2022-07-29T05:21:07.322Z,3.53
2022-07-29T05:23:33.841Z,3.28
2022-07-29T05:26:00.378Z,3.50
2022-07-29T05:28:26.832Z,3.83
2022-07-29T05:30:53.376Z,3.85
2022-07-29T05:33:35.176Z,3.47
2022-07-29T05:36:08.185Z,3.70
2022-07-29T05:38:38.255Z,3.80
2022-07-29T05:41:06.047Z,3.88
2022-07-29T05:43:32.976Z,3.72
2022-07-29T05:45:59.607Z,4.18
2022-07-29T05:48:26.318Z,3.20
2022-07-29T05:50:52.813Z,3.75
2022-07-29T05:53:20.855Z,3.60
2022-07-29T05:55:48.580Z,3.50
2022-07-29T05:58:15.137Z,4.00
2022-07-29T06:00:43.000Z,3.67
2022-07-29T06:03:09.456Z,3.53
2022-07-29T06:05:36.016Z,3.53
2022-07-29T06:08:02.652Z,3.15
2022-07-29T06:10:29.172Z,2.60
2022-07-29T06:12:55.983Z,2.70
2022-07-29T06:15:22.515Z,2.75
2022-07-29T06:18:00.354Z,3.00
2022-07-29T06:20:30.756Z,2.50
2022-07-29T06:22:57.667Z,2.88
2022-07-29T06:25:24.436Z,2.53
2022-07-29T06:27:50.966Z,2.67
2022-07-29T06:30:17.537Z,2.95
2022-07-29T06:32:43.980Z,2.45
2022-07-29T06:35:37.726Z,2.30
2022-07-29T06:37:59.592Z,2.65
2022-07-29T06:40:45.576Z,2.42
2022-07-29T06:43:12.238Z,2.38
2022-07-29T06:45:42.189Z,2.72
2022-07-29T06:48:09.220Z,2.60
2022-07-29T06:50:35.685Z,2.40
2022-07-29T06:53:02.163Z,2.38
2022-07-29T06:55:28.749Z,2.60
2022-07-29T06:57:55.198Z,2.70
2022-07-29T07:00:21.795Z,2.67
2022-07-29T07:02:48.875Z,2.50
2022-07-29T07:05:15.433Z,2.50
2022-07-29T07:07:41.902Z,2.20
2022-07-29T07:10:08.744Z,2.60
2022-07-29T07:12:35.168Z,2.72
2022-07-29T07:15:01.782Z,2.72
2022-07-29T07:17:28.273Z,2.70
2022-07-29T07:19:54.687Z,2.72
2022-07-29T07:22:21.220Z,2.65
2022-07-29T07:24:47.721Z,2.40
2022-07-29T07:27:14.251Z,2.80
2022-07-29T07:29:42.102Z,2.60
2022-07-29T07:32:11.033Z,2.53
2022-07-29T07:34:38.886Z,2.60
2022-07-29T07:37:06.182Z,2.70
2022-07-29T07:39:32.771Z,2.90
2022-07-29T07:41:59.367Z,3.10
2022-07-29T07:44:25.822Z,2.45
2022-07-29T07:46:52.397Z,3.05
2022-07-29T07:49:19.731Z,2.80
2022-07-29T07:51:50.697Z,2.63
2022-07-29T07:54:18.143Z,3.08
2022-07-29T07:56:45.185Z,2.53
2022-07-29T07:59:11.637Z,2.85
2022-07-29T08:01:48.422Z,2.80
2022-07-29T08:04:27.477Z,2.50
2022-07-29T08:06:57.765Z,3.15
2022-07-29T08:09:30.386Z,3.30
2022-07-29T08:11:58.586Z,3.60
2022-07-29T08:14:25.133Z,3.60
2022-07-29T08:16:52.324Z,3.47
2022-07-29T08:19:19.106Z,3.70
2022-07-29T08:21:45.549Z,4.55
2022-07-29T08:24:30.603Z,4.13
2022-07-29T08:26:57.105Z,3.88
2022-07-29T08:29:23.645Z,3.30
2022-07-29T08:31:50.367Z,3.42
2022-07-29T08:34:17.112Z,3.83
2022-07-29T08:36:43.559Z,3.47
2022-07-29T08:39:10.213Z,2.80
2022-07-29T08:41:36.670Z,3.15
2022-07-29T08:44:03.281Z,3.20
2022-07-29T08:46:29.768Z,3.00
2022-07-29T08:48:56.480Z,3.13
2022-07-29T08:51:23.325Z,2.80
2022-07-29T08:53:51.027Z,3.25
2022-07-29T08:56:19.094Z,2.90
2022-07-29T08:58:52.033Z,2.75
2022-07-29T09:01:36.511Z,2.60
2022-07-29T09:04:10.653Z,3.03
2022-07-29T09:06:39.475Z,2.88
2022-07-29T09:09:06.346Z,2.97
2022-07-29T09:11:33.499Z,2.40
2022-07-29T09:14:00.346Z,2.53
2022-07-29T09:16:50.971Z,2.75
2022-07-29T09:19:26.402Z,2.20
2022-07-29T09:21:59.370Z,2.20
2022-07-29T09:24:40.501Z,2.00
2022-07-29T09:27:19.940Z,2.10
2022-07-29T09:29:46.584Z,3.08
2022-07-29T09:32:13.348Z,2.25
2022-07-29T09:34:39.819Z,1.90
2022-07-29T09:37:06.435Z,2.70
2022-07-29T09:39:49.205Z,2.40
2022-07-29T09:42:29.294Z,1.75
2022-07-29T09:44:55.768Z,2.17
2022-07-29T09:47:26.854Z,2.08
2022-07-29T09:49:59.138Z,1.85
2022-07-29T09:52:30.675Z,2.25
2022-07-29T09:55:07.449Z,2.00
2022-07-29T09:57:33.911Z,2.17
2022-07-29T10:00:03.899Z,2.00
2022-07-29T10:02:34.499Z,2.17
2022-07-29T10:05:03.051Z,2.47
2022-07-29T10:07:53.312Z,2.10
2022-07-29T10:10:28.866Z,1.60
2022-07-29T10:12:56.179Z,1.70
2022-07-29T10:15:24.751Z,2.03
2022-07-29T10:17:52.359Z,2.08
2022-07-29T10:20:19.582Z,1.90
2022-07-29T10:22:53.520Z,2.05
2022-07-29T10:25:21.463Z,1.98
2022-07-29T10:27:48.773Z,1.95
2022-07-29T10:30:16.437Z,1.65
2022-07-29T10:33:04.495Z,1.67
2022-07-29T10:35:45.021Z,1.40
2022-07-29T10:38:45.793Z,1.80
2022-07-29T10:41:55.415Z,1.85
2022-07-29T10:44:24.557Z,2.20
2022-07-29T10:46:52.251Z,2.00
2022-07-29T10:49:20.200Z,1.85
2022-07-29T10:52:03.644Z,1.90
2022-07-29T10:54:48.435Z,1.85
2022-07-29T10:57:53.284Z,1.77
2022-07-29T11:00:12.654Z,1.90
2022-07-29T11:02:45.343Z,1.65
2022-07-29T11:05:13.610Z,2.35
2022-07-29T11:08:02.338Z,1.90
2022-07-29T11:10:31.308Z,2.00
2022-07-29T11:12:59.103Z,2.25
2022-07-29T11:15:25.654Z,2.00
2022-07-29T11:17:55.187Z,1.98
2022-07-29T11:20:38.719Z,2.03
2022-07-29T11:23:36.486Z,1.90
2022-07-29T11:26:28.377Z,2.42
2022-07-29T11:29:04.617Z,1.85
2022-07-29T11:31:44.322Z,1.95
2022-07-29T11:34:22.586Z,1.98
2022-07-29T11:37:07.594Z,2.00
2022-07-29T11:39:36.803Z,2.38
2022-07-29T11:42:32.459Z,2.33
2022-07-29T11:45:41.751Z,2.70
2022-07-29T11:48:03.669Z,2.33
2022-07-29T11:50:45.738Z,2.22
2022-07-29T11:53:15.115Z,5.63
2022-07-29T11:55:51.018Z,2.20
2022-07-29T12:01:14.981Z,2.05
2022-07-29T12:03:43.632Z,2.30
2022-07-29T12:06:14.904Z,2.22
2022-07-29T12:08:46.013Z,2.35
2022-07-29T12:11:22.503Z,2.00
2022-07-29T12:13:51.488Z,2.30
2022-07-29T12:16:26.134Z,2.25
2022-07-29T12:19:02.097Z,2.30
2022-07-29T12:21:30.207Z,2.33
2022-07-29T12:24:03.348Z,2.35
2022-07-29T12:26:34.132Z,2.17
2022-07-29T12:29:03.381Z,2.20
2022-07-29T12:31:42.202Z,2.55
2022-07-29T12:34:16.410Z,2.53
2022-07-29T12:36:43.803Z,2.35
2022-07-29T12:39:11.542Z,2.25
2022-07-29T12:41:38.469Z,2.42
2022-07-29T12:44:07.982Z,2.60
2022-07-29T12:46:34.610Z,2.22
2022-07-29T12:49:01.240Z,2.40
2022-07-29T12:51:34.672Z,2.20
2022-07-29T12:54:11.691Z,2.47
2022-07-29T12:56:43.693Z,2.35
2022-07-29T12:59:14.521Z,2.20
2022-07-29T13:01:41.137Z,2.13
2022-07-29T13:04:07.714Z,2.38
2022-07-29T13:06:49.674Z,2.50
2022-07-29T13:09:20.110Z,2.47
2022-07-29T13:11:51.028Z,2.20
2022-07-29T13:14:38.571Z,2.33
2022-07-29T13:17:13.426Z,2.58
2022-07-29T13:19:54.244Z,2.90
2022-07-29T13:22:36.644Z,3.10
2022-07-29T13:25:03.874Z,2.65
2022-07-29T13:27:33.480Z,2.60
2022-07-29T13:30:01.746Z,2.70
2022-07-29T13:32:30.418Z,2.50
2022-07-29T13:34:58.564Z,2.35
2022-07-29T13:37:25.711Z,2.72
2022-07-29T13:39:58.064Z,2.28
2022-07-29T13:42:27.742Z,2.50
2022-07-29T13:44:56.462Z,2.40
2022-07-29T13:47:35.072Z,2.40
2022-07-29T13:50:02.331Z,2.50
2022-07-29T13:52:29.280Z,2.17
2022-07-29T13:55:00.582Z,2.78
2022-07-29T13:57:40.664Z,2.50
2022-07-29T14:00:13.955Z,2.50
2022-07-29T14:02:43.734Z,2.47
2022-07-29T14:05:11.116Z,2.30
2022-07-29T14:07:39.859Z,2.60
2022-07-29T14:10:07.242Z,2.40
2022-07-29T14:12:33.918Z,2.50
2022-07-29T14:15:00.418Z,2.53
2022-07-29T14:17:27.131Z,2.53
2022-07-29T14:19:58.257Z,2.70
2022-07-29T14:22:26.960Z,2.90
2022-07-29T14:24:55.489Z,3.30
2022-07-29T14:27:37.685Z,3.17
2022-07-29T14:30:08.167Z,2.70
2022-07-29T14:32:34.693Z,3.10
2022-07-29T14:35:01.181Z,2.47
2022-07-29T14:37:27.790Z,3.05
2022-07-29T14:40:06.532Z,2.85
2022-07-29T14:42:33.137Z,3.00
2022-07-29T14:44:59.730Z,2.88
2022-07-29T14:47:30.784Z,2.67
2022-07-29T14:49:57.364Z,2.85
2022-07-29T14:52:23.885Z,2.70
2022-07-29T14:54:50.441Z,2.72
2022-07-29T14:57:17.411Z,2.50
2022-07-29T14:59:43.933Z,2.65
2022-07-29T15:02:10.934Z,2.40
2022-07-29T15:04:55.893Z,2.55
2022-07-29T15:07:48.206Z,2.72
2022-07-29T15:10:15.681Z,2.60
2022-07-29T15:12:42.276Z,2.67
2022-07-29T15:15:09.832Z,2.78
2022-07-29T15:17:36.560Z,2.60
2022-07-29T15:20:04.034Z,2.50
2022-07-29T15:22:30.567Z,2.70
2022-07-29T15:24:57.293Z,2.40
2022-07-29T15:27:23.861Z,2.72
2022-07-29T15:29:50.496Z,2.60
2022-07-29T15:32:19.838Z,2.30
2022-07-29T15:34:46.541Z,2.47
2022-07-29T15:37:13.071Z,2.45
2022-07-29T15:39:39.872Z,2.30
2022-07-29T15:42:06.674Z,5.18
2022-07-29T15:44:33.348Z,3.03
2022-07-29T15:47:08.412Z,2.67
2022-07-29T15:49:47.402Z,2.40
2022-07-29T15:52:26.876Z,2.38
2022-07-29T15:54:59.055Z,1.80
2022-07-29T15:57:26.049Z,2.47
2022-07-29T15:59:53.005Z,2.72
2022-07-29T16:02:19.866Z,2.63
2022-07-29T16:04:47.227Z,2.47
2022-07-29T16:07:14.310Z,2.63
2022-07-29T16:09:41.263Z,2.55
2022-07-29T16:12:14.736Z,2.53
2022-07-29T16:14:43.355Z,3.03
2022-07-29T16:17:14.249Z,2.50
2022-07-29T16:19:41.934Z,2.78
2022-07-29T16:22:08.440Z,2.33
2022-07-29T16:24:34.970Z,2.17
2022-07-29T16:27:02.067Z,2.35
2022-07-29T16:29:29.083Z,2.40
2022-07-29T16:31:55.660Z,2.35
2022-07-29T16:34:22.256Z,2.20
2022-07-29T16:36:48.752Z,5.30
2022-07-29T16:39:15.530Z,2.88
2022-07-29T16:41:42.293Z,2.55
2022-07-29T16:44:08.756Z,2.53
2022-07-29T16:46:37.410Z,2.35
2022-07-29T16:49:05.661Z,2.40
2022-07-29T16:51:32.675Z,2.60
2022-07-29T16:53:59.214Z,2.72
2022-07-29T16:56:25.742Z,3.22
2022-07-29T16:58:52.206Z,2.95
2022-07-29T17:01:18.859Z,3.15
2022-07-29T17:04:03.866Z,4.60
2022-07-29T17:06:30.451Z,4.50
2022-07-29T17:08:57.124Z,6.20
2022-07-29T17:11:53.270Z,4.20
2022-07-29T17:14:10.646Z,4.20
2022-07-29T17:16:37.199Z,2.72
2022-07-29T17:19:03.732Z,2.90
2022-07-29T17:21:30.268Z,2.88
2022-07-29T17:23:58.713Z,2.92
2022-07-29T17:26:26.830Z,2.90
2022-07-29T17:28:55.067Z,2.67
2022-07-29T17:31:21.849Z,2.90
2022-07-29T17:33:48.548Z,2.77
2022-07-29T17:36:24.007Z,2.60
2022-07-29T17:38:51.617Z,2.60
2022-07-29T17:41:18.381Z,2.58
2022-07-29T17:43:44.980Z,2.38
2022-07-29T17:46:11.551Z,2.72
2022-07-29T17:48:38.211Z,2.40
2022-07-29T17:51:04.804Z,2.22
2022-07-29T17:53:31.402Z,2.63
2022-07-29T17:55:58.685Z,2.72
2022-07-29T17:58:27.768Z,2.70
2022-07-29T18:00:54.288Z,3.05
2022-07-29T18:03:21.259Z,2.65
2022-07-29T18:05:51.516Z,2.55
2022-07-29T18:08:18.321Z,2.40
2022-07-29T18:10:45.981Z,3.28
2022-07-29T18:13:12.948Z,2.40
2022-07-29T18:15:40.624Z,2.47
2022-07-29T18:18:07.637Z,2.33
2022-07-29T18:20:34.511Z,2.63
2022-07-29T18:23:01.348Z,2.40
2022-07-29T18:25:28.927Z,2.50
2022-07-29T18:27:59.992Z,2.83
2022-07-29T18:30:27.390Z,2.90
2022-07-29T18:33:19.144Z,2.92
2022-07-29T18:35:40.820Z,2.72
2022-07-29T18:38:07.341Z,2.55
2022-07-29T18:40:34.015Z,2.83
2022-07-29T18:43:00.585Z,2.90
2022-07-29T18:45:28.572Z,2.53
2022-07-29T18:47:56.351Z,2.50
2022-07-29T18:50:28.944Z,2.83
2022-07-29T18:52:58.692Z,2.80
2022-07-29T18:55:26.011Z,2.72
2022-07-29T18:57:57.465Z,2.70
2022-07-29T19:00:25.519Z,2.60
2022-07-29T19:02:53.094Z,2.83
2022-07-29T19:05:21.268Z,2.75
2022-07-29T19:07:48.468Z,2.67
2022-07-29T19:10:16.037Z,2.85
2022-07-29T19:12:45.622Z,2.83
2022-07-29T19:15:20.310Z,2.95
2022-07-29T19:17:49.009Z,2.83
2022-07-29T19:20:18.483Z,3.30
2022-07-29T19:22:49.253Z,2.97
2022-07-29T19:25:19.558Z,2.63
2022-07-29T19:27:51.282Z,2.97
2022-07-29T19:30:18.890Z,3.13
2022-07-29T19:32:48.746Z,2.95
2022-07-29T19:35:25.446Z,3.05
2022-07-29T19:37:59.015Z,3.10
2022-07-29T19:40:26.616Z,3.10
2022-07-29T19:42:54.302Z,2.85
2022-07-29T19:45:25.994Z,3.10
2022-07-29T19:47:57.718Z,3.10
2022-07-29T19:50:27.649Z,2.80
2022-07-29T19:52:56.346Z,3.25
2022-07-29T19:55:23.605Z,3.00
2022-07-29T19:57:51.070Z,3.13
2022-07-29T20:00:20.301Z,3.28
2022-07-29T20:02:48.303Z,3.22
2022-07-29T20:05:17.841Z,2.83
2022-07-29T20:07:44.613Z,2.80
2022-07-29T20:10:11.379Z,3.13
2022-07-29T20:12:38.856Z,3.15
2022-07-29T20:15:10.637Z,2.95
2022-07-29T20:17:45.691Z,2.80
2022-07-29T20:20:15.661Z,3.15
2022-07-29T20:22:42.991Z,2.97
2022-07-29T20:25:13.521Z,3.05
2022-07-29T20:27:40.653Z,2.85
2022-07-29T20:30:08.335Z,3.10
2022-07-29T20:32:35.639Z,2.85
2022-07-29T20:35:02.347Z,2.90
2022-07-29T20:37:29.148Z,3.10
2022-07-29T20:39:55.880Z,3.30
2022-07-29T20:42:22.593Z,3.60
2022-07-29T20:44:54.044Z,3.60
2022-07-29T20:47:22.453Z,3.28
2022-07-29T20:49:49.132Z,3.50
2022-07-29T20:52:16.551Z,3.42
2022-07-29T20:54:43.294Z,3.45
2022-07-29T20:57:09.792Z,3.28
2022-07-29T20:59:36.376Z,3.55
2022-07-29T21:02:03.357Z,3.55
2022-07-29T21:04:30.753Z,3.35
2022-07-29T21:06:59.389Z,3.67
2022-07-29T21:09:26.208Z,3.13
2022-07-29T21:11:52.756Z,3.28
2022-07-29T21:14:42.397Z,3.30
2022-07-29T21:17:09.005Z,3.53
2022-07-29T21:19:35.558Z,3.33
2022-07-29T21:22:02.211Z,3.38
2022-07-29T21:24:28.827Z,3.75
2022-07-29T21:27:20.579Z,3.53
2022-07-29T21:29:47.557Z,3.38
2022-07-29T21:32:29.459Z,3.72
2022-07-29T21:34:57.374Z,3.78
2022-07-29T21:37:23.988Z,3.45
2022-07-29T21:39:50.554Z,3.90
2022-07-29T21:42:19.051Z,3.45
2022-07-29T21:44:45.711Z,3.38
2022-07-29T21:47:12.253Z,3.42
2022-07-29T21:49:39.213Z,3.60
2022-07-29T21:52:06.325Z,4.10
2022-07-29T21:54:34.616Z,3.97
2022-07-29T21:57:01.267Z,3.53
2022-07-29T21:59:27.986Z,4.10
2022-07-29T22:01:54.917Z,3.75
2022-07-29T22:04:24.793Z,4.78
2022-07-29T22:06:51.580Z,4.45
2022-07-29T22:09:18.336Z,4.07
2022-07-29T22:11:45.131Z,4.22
2022-07-29T22:14:15.132Z,4.10
2022-07-29T22:16:41.875Z,4.40
2022-07-29T22:19:08.655Z,4.57
2022-07-29T22:21:35.393Z,3.97
2022-07-29T22:24:02.140Z,4.30
2022-07-29T22:26:28.828Z,3.75
2022-07-29T22:28:55.508Z,3.97
2022-07-29T22:31:22.222Z,4.57
2022-07-29T22:33:54.068Z,4.28
2022-07-29T22:36:20.739Z,4.10
2022-07-29T22:38:51.754Z,4.18
2022-07-29T22:41:18.716Z,4.20
2022-07-29T22:43:47.573Z,3.72
2022-07-29T22:46:14.357Z,3.60
2022-07-29T22:48:41.109Z,4.35
2022-07-29T22:51:07.919Z,3.60
2022-07-29T22:53:36.289Z,4.30
2022-07-29T22:56:05.893Z,4.07
2022-07-29T22:58:32.742Z,4.25
2022-07-29T23:01:02.483Z,4.25
2022-07-29T23:03:29.280Z,4.82
2022-07-29T23:05:56.209Z,4.03
2022-07-29T23:08:22.818Z,4.55
2022-07-29T23:10:49.659Z,4.28
2022-07-29T23:13:16.397Z,5.05
2022-07-29T23:15:43.094Z,4.53
2022-07-29T23:18:09.812Z,5.70
2022-07-29T23:20:36.931Z,6.53
2022-07-29T23:23:03.652Z,6.38
2022-07-29T23:25:30.294Z,7.30
2022-07-29T23:28:00.179Z,8.60
2022-07-29T23:30:27.276Z,9.07
2022-07-29T23:32:55.083Z,9.25
2022-07-29T23:35:21.980Z,9.10
2022-07-29T23:37:48.650Z,9.85
2022-07-29T23:40:15.415Z,10.27
2022-07-29T23:42:42.713Z,9.70
2022-07-29T23:45:10.516Z,9.15
2022-07-29T23:47:37.087Z,10.05
2022-07-29T23:50:04.994Z,9.65
2022-07-29T23:52:31.487Z,9.48
2022-07-29T23:55:36.907Z,9.65
2022-07-29T23:57:44.492Z,9.35
